METAR Data
IDs: Format: Raw Decoded Include TAF

Data at: 0814 UTC 03 Aug 2021

KMCC 030755Z AUTO 15008KT 10SM CLR 20/10 A2996 RMK AO2
KMCC 030735Z AUTO 16007KT 10SM CLR 21/10 A2996 RMK AO2
KMCC 030715Z AUTO 15007KT 10SM 21/10 A2996 RMK AO2
KMCC 030655Z AUTO 16008KT 10SM CLR 21/10 A2996 RMK AO2
KMCC 030635Z AUTO 16006KT 10SM CLR 21/10 A2995 RMK AO2
KMCC 030615Z AUTO 16006KT 10SM CLR 22/10 A2995 RMK AO2
KMCC 030555Z AUTO 19007KT 10SM CLR 23/10 A2995 RMK AO2
KMCC 030535Z AUTO 18006KT 10SM CLR 23/10 A2995 RMK AO2
KMCC 030515Z AUTO 21007KT 10SM CLR 25/10 A2995 RMK AO2
KMCC 030455Z AUTO 20006KT 10SM CLR 26/09 A2995 RMK AO2
KMCC 030435Z AUTO 20007KT 10SM CLR 27/08 A2995 RMK AO2
KMCC 030415Z AUTO 20006KT 10SM CLR 28/06 A2995 RMK AO2
KMCC 030355Z AUTO 19004KT 10SM CLR 28/06 A2994 RMK AO2
KMCC 030335Z AUTO 21007G12KT 10SM CLR 29/06 A2995 RMK AO2
KMCC 030315Z AUTO 22010KT 10SM CLR 30/06 A2995 RMK AO2
KMCC 030255Z AUTO 22007KT 10SM CLR 32/01 A2994 RMK AO2
KMCC 030235Z AUTO 21009KT 10SM CLR 33/M00 A2994 RMK AO2
KMCC 030215Z AUTO 20006KT 10SM CLR 34/M02 A2994 RMK AO2
KMCC 030155Z AUTO 24004KT 10SM CLR 35/M05 A2995 RMK AO2
KMCC 030135Z AUTO 00000KT 10SM CLR 35/M06 A2995 RMK AO2
KMCC 030115Z AUTO 22004KT 9SM CLR 35/M05 A2995 RMK AO2
KMCC 030055Z AUTO VRB03KT 10SM CLR 35/M03 A2996 RMK AO2
KMCC 030035Z AUTO 22005KT 10SM CLR 35/M04 A2996 RMK AO2
KMCC 030015Z AUTO 21007KT 10SM CLR 35/M02 A2996 RMK AO2
KMCC 022355Z AUTO 00000KT 10SM CLR 35/M02 A2996 RMK AO2
KMCC 022335Z AUTO 21005KT 10SM CLR 34/M01 A2997 RMK AO2
KMCC 022315Z AUTO VRB04KT 9SM CLR 35/M01 A2998 RMK AO2
KMCC 022255Z AUTO VRB03KT 10SM CLR 34/M03 A2999 RMK AO2
KMCC 022235Z AUTO 20005KT 10SM CLR 34/M03 A2999 RMK AO2
KMCC 022215Z AUTO VRB04KT 9SM CLR 33/M03 A3000 RMK AO2
KMCC 022155Z AUTO 24007KT 9SM CLR 33/01 A3001 RMK AO2
KMCC 022130Z AUTO 24006KT 10SM CLR 32/02 A3002 RMK AO2
KMCC 022115Z AUTO 23006KT 10SM CLR 32/02 A3003 RMK AO2
KMCC 022055Z AUTO 00000KT 10SM CLR 31/03 A3003 RMK AO2
KMCC 022035Z AUTO 21007KT 10SM CLR 30/02 A3004 RMK AO2
KMCC 022015Z AUTO 21006KT 10SM CLR 30/06 A3004 RMK AO2
KMCC 021955Z AUTO 22008KT 10SM CLR 29/07 A3005 RMK AO2
KMCC 021935Z AUTO VRB06KT 10SM CLR 28/06 A3005 RMK AO2
KMCC 021915Z AUTO VRB05G10KT 10SM CLR 27/07 A3006 RMK AO2
KMCC 021855Z AUTO 20007KT 180V240 10SM CLR 26/08 A3006 RMK AO2
KMCC 021835Z AUTO 18009KT 10SM CLR 26/08 A3007 RMK AO2
KMCC 021815Z AUTO 18008KT 10SM CLR 25/08 A3007 RMK AO2
KMCC 021755Z AUTO 19007KT 10SM CLR 24/09 A3008 RMK AO2
KMCC 021735Z AUTO 18008G13KT 10SM CLR 23/09 A3008 RMK AO2
KMCC 021715Z AUTO 18007KT 10SM CLR 22/10 A3008 RMK AO2
KMCC 021655Z AUTO 20009KT 10SM CLR 22/10 A3008 RMK AO2
KMCC 021635Z AUTO 17009KT 10SM CLR 21/10 A3008 RMK AO2
KMCC 021615Z AUTO 16010G15KT 10SM CLR 20/10 A3008 RMK AO2
KMCC 021555Z AUTO 16011KT 10SM CLR 19/11 A3008 RMK AO2
KMCC 021535Z AUTO 15012KT 10SM CLR 19/11 A3008 RMK AO2
KMCC 021515Z AUTO 15011G17KT 10SM CLR 18/10 A3008 RMK AO2
KMCC 021455Z AUTO 15013KT 10SM CLR 18/10 A3007 RMK AO2
KMCC 021435Z AUTO 15013KT 10SM CLR 17/11 A3007 RMK AO2
KMCC 021415Z AUTO 15013KT 10SM CLR 16/11 A3006 RMK AO2
KMCC 021355Z AUTO 14010KT 10SM CLR 16/11 A3006 RMK AO2
KMCC 021335Z AUTO 14012KT 10SM CLR 16/11 A3005 RMK AO2
KMCC 021315Z AUTO 15012KT 10SM CLR 16/11 A3005 RMK AO2
KMCC 021255Z AUTO 14011KT 10SM CLR 16/11 A3004 RMK AO2
KMCC 021235Z AUTO 15010KT 10SM CLR 16/11 A3003 RMK AO2
KMCC 021215Z AUTO 15010KT 10SM CLR 16/11 A3003 RMK AO2
KMCC 021155Z AUTO 15011KT 10SM CLR 16/11 A3003 RMK AO2
KMCC 021135Z AUTO 15012KT 10SM CLR 16/11 A3003 RMK AO2
KMCC 021115Z AUTO 15012KT 10SM CLR 16/11 A3003 RMK AO2
KMCC 021055Z AUTO 15012KT 10SM CLR 17/11 A3003 RMK AO2
KMCC 021035Z AUTO 14011KT 10SM CLR 17/11 A3002 RMK AO2
KMCC 021015Z AUTO 14012KT 10SM CLR 17/11 A3002 RMK AO2
KMCC 020955Z AUTO 14013KT 10SM CLR 17/11 A3002 RMK AO2
KMCC 020935Z AUTO 14013KT 10SM CLR 18/10 A3002 RMK AO2
KMCC 020915Z AUTO 15012KT 10SM CLR 18/10 A3001 RMK AO2
KMCC 020855Z AUTO 16012G17KT 10SM CLR 19/09 A3001 RMK AO2
KMCC 020835Z AUTO 16012KT 10SM CLR 19/09 A3001 RMK AO2
KMCC 020815Z AUTO 15010KT 10SM CLR 19/10 A3002 RMK AO2
KMCC 020755Z AUTO 14010KT 10SM CLR 19/11 A3001 RMK AO2
KMCC 020735Z AUTO 15010KT 10SM CLR 19/10 A3001 RMK AO2
KMCC 020715Z AUTO 16008KT 10SM CLR 19/11 A3001 RMK AO2
KMCC 020655Z AUTO 15011KT 10SM CLR 20/11 A3000 RMK AO2
KMCC 020635Z AUTO 15010KT 10SM CLR 20/11 A3000 RMK AO2
KMCC 020615Z AUTO 16010KT 10SM CLR 20/11 A3000 RMK AO2
KMCC 020555Z AUTO 16009KT 10SM CLR 21/11 A3000 RMK AO2
KMCC 020535Z AUTO 16009KT 10SM CLR 21/11 A3000 RMK AO2
KMCC 020515Z AUTO 15009KT 10SM CLR 22/11 A3000 RMK AO2
KMCC 020455Z AUTO 17011KT 10SM CLR 22/11 A2999 RMK AO2
KMCC 020435Z AUTO 16010KT 10SM CLR 23/11 A2998 RMK AO2
KMCC 020415Z AUTO 17011KT 10SM CLR 24/11 A2997 RMK AO2
KMCC 020355Z AUTO 18010KT 10SM CLR 25/11 A2996 RMK AO2
KMCC 020335Z AUTO 19010KT 10SM CLR 27/10 A2995 RMK AO2
KMCC 020315Z AUTO 19009KT 10SM CLR 28/10 A2994 RMK AO2
KMCC 020255Z AUTO 20011KT 10SM CLR 29/10 A2993 RMK AO2
KMCC 020235Z AUTO 19011KT 10SM CLR 31/10 A2993 RMK AO2
KMCC 020215Z AUTO 22010KT 10SM CLR 32/07 A2992 RMK AO2
KMCC 020155Z AUTO 19012KT 10SM CLR 33/07 A2992 RMK AO2
KMCC 020135Z AUTO 20012KT 10SM CLR 34/06 A2992 RMK AO2
KMCC 020115Z AUTO 18010KT 10SM CLR 34/06 A2992 RMK AO2
KMCC 020055Z AUTO 20009KT 10SM CLR 35/06 A2992 RMK AO2
KMCC 020035Z AUTO 21009KT 10SM CLR 35/06 A2992 RMK AO2
KMCC 020015Z AUTO 19009KT 10SM CLR 36/07 A2992 RMK AO2
KMCC 012355Z AUTO 22009KT 10SM CLR 36/06 A2992 RMK AO2
KMCC 012335Z AUTO 20007G12KT 10SM CLR 36/08 A2992 RMK AO2
KMCC 012315Z AUTO 23009KT 10SM CLR 35/08 A2993 RMK AO2
KMCC 012255Z AUTO 24008KT 10SM CLR 35/09 A2993 RMK AO2
KMCC 012235Z AUTO 22008KT 10SM CLR 35/10 A2994 RMK AO2
KMCC 012215Z AUTO 23007KT 9SM CLR 35/11 A2995 RMK AO2
KMCC 012155Z AUTO 25006KT 10SM CLR 34/12 A2995 RMK AO2
KMCC 012135Z AUTO VRB06G11KT 10SM CLR 34/12 A2996 RMK AO2
KMCC 012115Z AUTO 22007KT 10SM CLR 34/13 A2996 RMK AO2
KMCC 012055Z AUTO 00000KT 10SM CLR 33/13 A2997 RMK AO2
KMCC 012035Z AUTO 00000KT 10SM CLR 32/13 A2998 RMK AO2
KMCC 012015Z AUTO 26004KT 10SM CLR 31/13 A2998 RMK AO2